Time,TemperatureF,DewpointF,PressureIn,WindDirection,WindDirectionDegrees,WindSpeedMPH,WindSpeedGustMPH,Humidity,HourlyPrecipIn,Conditions,Clouds,dailyrainin,SoftwareType,DateUTC
2013-02-15 00:00:00,23.9,21.1,29.96,North,5,0.0,0.0,89,0.00,,,0.00,WUHU216DAVISVP2,2013-02-15 05:00:00,
2013-02-15 00:05:00,23.8,21.0,29.96,North,5,0.0,0.0,89,0.00,,,0.00,WUHU216DAVISVP2,2013-02-15 05:05:00,
2013-02-15 00:10:00,23.8,21.0,29.96,North,5,0.0,0.0,89,0.00,,,0.00,WUHU216DAVISVP2,2013-02-15 05:10:00,
2013-02-15 00:15:00,23.8,21.0,29.96,North,5,0.0,0.0,89,0.00,,,0.00,WUHU216DAVISVP2,2013-02-15 05:15:00,
2013-02-15 00:20:00,23.7,20.9,29.96,North,5,0.0,0.0,89,0.00,,,0.00,WUHU216DAVISVP2,2013-02-15 05:20:00,
2013-02-15 00:25:00,23.6,20.8,29.96,North,5,0.0,0.0,89,0.00,,,0.00,WUHU216DAVISVP2,2013-02-15 05:25:00,
2013-02-15 00:30:00,23.5,20.7,29.96,North,5,0.0,0.0,89,0.00,,,0.00,WUHU216DAVISVP2,2013-02-15 05:30:00,
2013-02-15 00:35:00,23.4,20.6,29.96,North,5,0.0,0.0,89,0.00,,,0.00,WUHU216DAVISVP2,2013-02-15 05:35:00,
2013-02-15 00:40:00,23.2,20.4,29.95,North,5,0.0,0.0,89,0.00,,,0.00,WUHU216DAVISVP2,2013-02-15 05:40:00,
2013-02-15 00:45:00,23.0,20.2,29.95,North,5,0.0,0.0,89,0.00,,,0.00,WUHU216DAVISVP2,2013-02-15 05:45:00,
2013-02-15 00:50:00,22.8,20.0,29.95,North,5,0.0,0.0,89,0.00,,,0.00,WUHU216DAVISVP2,2013-02-15 05:50:00,
2013-02-15 00:55:00,22.5,19.7,29.95,North,5,0.0,0.0,89,0.00,,,0.00,WUHU216DAVISVP2,2013-02-15 05:55:00,
2013-02-15 01:00:00,22.4,19.6,29.95,North,5,0.0,0.0,89,0.00,,,0.00,WUHU216DAVISVP2,2013-02-15 06:00:00,
2013-02-15 01:05:00,22.1,19.6,29.95,North,5,0.0,0.0,90,0.00,,,0.00,WUHU216DAVISVP2,2013-02-15 06:05:00,
2013-02-15 01:10:00,22.0,19.5,29.95,North,5,0.0,0.0,90,0.00,,,0.00,WUHU216DAVISVP2,2013-02-15 06:10:00,
2013-02-15 01:15:00,21.8,19.3,29.95,North,5,0.0,0.0,90,0.00,,,0.00,WUHU216DAVISVP2,2013-02-15 06:15:00,
2013-02-15 01:20:00,21.6,19.1,29.95,North,5,0.0,0.0,90,0.00,,,0.00,WUHU216DAVISVP2,2013-02-15 06:20:00,
2013-02-15 01:25:00,21.3,18.8,29.95,North,5,0.0,0.0,90,0.00,,,0.00,WUHU216DAVISVP2,2013-02-15 06:25:00,
2013-02-15 01:30:00,21.1,18.8,29.95,North,5,0.0,0.0,91,0.00,,,0.00,WUHU216DAVISVP2,2013-02-15 06:30:00,
2013-02-15 01:35:00,21.0,18.7,29.95,North,5,0.0,0.0,91,0.00,,,0.00,WUHU216DAVISVP2,2013-02-15 06:35:00,
2013-02-15 01:40:00,20.8,18.5,29.95,North,5,0.0,0.0,91,0.00,,,0.00,WUHU216DAVISVP2,2013-02-15 06:40:00,
2013-02-15 01:45:00,20.7,18.4,29.95,North,5,0.0,0.0,91,0.00,,,0.00,WUHU216DAVISVP2,2013-02-15 06:45:00,
2013-02-15 01:50:00,20.5,18.2,29.95,North,5,0.0,0.0,91,0.00,,,0.00,WUHU216DAVISVP2,2013-02-15 06:50:00,
2013-02-15 01:55:00,20.3,18.3,29.95,North,5,0.0,0.0,92,0.00,,,0.00,WUHU216DAVISVP2,2013-02-15 06:55:00,
2013-02-15 02:00:00,20.2,18.2,29.95,North,5,0.0,0.0,92,0.00,,,0.00,WUHU216DAVISVP2,2013-02-15 07:00:00,
2013-02-15 02:05:00,20.1,18.1,29.95,North,5,0.0,0.0,92,0.00,,,0.00,WUHU216DAVISVP2,2013-02-15 07:05:00,
2013-02-15 02:10:00,19.9,18.0,29.95,North,5,0.0,0.0,92,0.00,,,0.00,WUHU216DAVISVP2,2013-02-15 07:10:00,
2013-02-15 02:15:00,19.8,17.9,29.95,North,5,0.0,0.0,92,0.00,,,0.00,WUHU216DAVISVP2,2013-02-15 07:15:00,
2013-02-15 02:20:00,19.7,17.8,29.95,North,5,0.0,0.0,92,0.00,,,0.00,WUHU216DAVISVP2,2013-02-15 07:20:00,
2013-02-15 02:25:00,19.5,17.6,29.95,North,5,0.0,0.0,92,0.00,,,0.00,WUHU216DAVISVP2,2013-02-15 07:25:00,
2013-02-15 02:30:00,19.3,17.4,29.95,North,5,0.0,0.0,92,0.00,,,0.00,WUHU216DAVISVP2,2013-02-15 07:30:00,
2013-02-15 02:35:00,19.2,17.3,29.95,North,5,0.0,0.0,92,0.00,,,0.00,WUHU216DAVISVP2,2013-02-15 07:35:00,
2013-02-15 02:40:00,19.1,17.4,29.95,North,5,0.0,0.0,93,0.00,,,0.00,WUHU216DAVISVP2,2013-02-15 07:40:00,
2013-02-15 02:45:00,19.0,17.3,29.95,North,5,0.0,0.0,93,0.00,,,0.00,WUHU216DAVISVP2,2013-02-15 07:45:00,
2013-02-15 02:50:00,18.9,17.2,29.95,North,5,0.0,0.0,93,0.00,,,0.00,WUHU216DAVISVP2,2013-02-15 07:50:00,
2013-02-15 02:55:00,18.9,17.2,29.95,North,5,0.0,0.0,93,0.00,,,0.00,WUHU216DAVISVP2,2013-02-15 07:55:00,
2013-02-15 03:00:00,18.7,17.0,29.95,North,5,0.0,0.0,93,0.00,,,0.00,WUHU216DAVISVP2,2013-02-15 08:00:00,
2013-02-15 03:05:00,18.5,16.8,29.95,North,5,0.0,0.0,93,0.00,,,0.00,WUHU216DAVISVP2,2013-02-15 08:05:00,
2013-02-15 03:10:00,18.4,16.7,29.95,North,5,0.0,0.0,93,0.00,,,0.00,WUHU216DAVISVP2,2013-02-15 08:10:00,
2013-02-15 03:15:00,18.3,16.6,29.95,North,5,0.0,0.0,93,0.00,,,0.00,WUHU216DAVISVP2,2013-02-15 08:15:00,
2013-02-15 03:20:00,18.2,16.5,29.95,North,5,1.0,1.0,93,0.00,,,0.00,WUHU216DAVISVP2,2013-02-15 08:20:00,
2013-02-15 03:25:00,18.1,16.4,29.95,North,5,0.0,1.0,93,0.00,,,0.00,WUHU216DAVISVP2,2013-02-15 08:25:00,
2013-02-15 03:30:00,18.0,16.3,29.95,North,5,0.0,1.0,93,0.00,,,0.00,WUHU216DAVISVP2,2013-02-15 08:30:00,
2013-02-15 03:35:00,17.9,16.2,29.94,North,5,0.0,1.0,93,0.00,,,0.00,WUHU216DAVISVP2,2013-02-15 08:35:00,
2013-02-15 03:40:00,17.9,16.2,29.94,North,5,0.0,0.0,93,0.00,,,0.00,WUHU216DAVISVP2,2013-02-15 08:40:00,
2013-02-15 03:45:00,17.9,16.2,29.94,North,5,0.0,0.0,93,0.00,,,0.00,WUHU216DAVISVP2,2013-02-15 08:45:00,
2013-02-15 03:50:00,17.9,16.2,29.94,North,5,0.0,0.0,93,0.00,,,0.00,WUHU216DAVISVP2,2013-02-15 08:50:00,
2013-02-15 03:55:00,17.9,16.2,29.94,North,5,0.0,0.0,93,0.00,,,0.00,WUHU216DAVISVP2,2013-02-15 08:55:00,
2013-02-15 04:00:00,17.9,16.2,29.94,North,5,0.0,0.0,93,0.00,,,0.00,WUHU216DAVISVP2,2013-02-15 09:00:00,
2013-02-15 04:05:00,18.0,16.3,29.94,North,5,0.0,0.0,93,0.00,,,0.00,WUHU216DAVISVP2,2013-02-15 09:05:00,
2013-02-15 04:10:00,18.0,16.3,29.95,North,5,0.0,0.0,93,0.00,,,0.00,WUHU216DAVISVP2,2013-02-15 09:10:00,
2013-02-15 04:15:00,18.0,16.3,29.94,North,5,0.0,0.0,93,0.00,,,0.00,WUHU216DAVISVP2,2013-02-15 09:15:00,
2013-02-15 04:20:00,18.0,16.3,29.94,North,5,0.0,0.0,93,0.00,,,0.00,WUHU216DAVISVP2,2013-02-15 09:20:00,
2013-02-15 04:25:00,18.1,16.4,29.94,North,5,0.0,0.0,93,0.00,,,0.00,WUHU216DAVISVP2,2013-02-15 09:25:00,
2013-02-15 04:30:00,18.3,16.9,29.94,North,5,0.0,0.0,94,0.00,,,0.00,WUHU216DAVISVP2,2013-02-15 09:30:00,
2013-02-15 04:35:00,18.4,16.7,29.95,North,5,0.0,0.0,93,0.00,,,0.00,WUHU216DAVISVP2,2013-02-15 09:35:00,
2013-02-15 04:40:00,18.5,17.1,29.95,North,5,0.0,0.0,94,0.00,,,0.00,WUHU216DAVISVP2,2013-02-15 09:40:00,
2013-02-15 04:45:00,18.7,17.3,29.95,North,5,0.0,0.0,94,0.00,,,0.00,WUHU216DAVISVP2,2013-02-15 09:45:00,
2013-02-15 04:50:00,18.8,17.4,29.95,North,5,0.0,0.0,94,0.00,,,0.00,WUHU216DAVISVP2,2013-02-15 09:50:00,
2013-02-15 04:55:00,18.9,17.5,29.95,North,5,0.0,0.0,94,0.00,,,0.00,WUHU216DAVISVP2,2013-02-15 09:55:00,
2013-02-15 05:00:00,19.0,17.6,29.95,North,5,0.0,0.0,94,0.00,,,0.00,WUHU216DAVISVP2,2013-02-15 10:00:00,
2013-02-15 05:05:00,19.1,17.7,29.94,North,5,0.0,0.0,94,0.00,,,0.00,WUHU216DAVISVP2,2013-02-15 10:05:00,
2013-02-15 05:10:00,19.2,17.5,29.94,North,5,0.0,0.0,93,0.00,,,0.00,WUHU216DAVISVP2,2013-02-15 10:10:00,
2013-02-15 05:15:00,19.3,17.6,29.94,North,5,0.0,0.0,93,0.00,,,0.00,WUHU216DAVISVP2,2013-02-15 10:15:00,
2013-02-15 05:20:00,19.5,17.8,29.94,North,5,0.0,0.0,93,0.00,,,0.00,WUHU216DAVISVP2,2013-02-15 10:20:00,
2013-02-15 05:25:00,19.7,18.0,29.93,North,5,0.0,0.0,93,0.00,,,0.00,WUHU216DAVISVP2,2013-02-15 10:25:00,
2013-02-15 05:30:00,19.9,18.2,29.93,North,5,0.0,0.0,93,0.00,,,0.00,WUHU216DAVISVP2,2013-02-15 10:30:00,
2013-02-15 05:35:00,19.8,18.1,29.93,North,5,0.0,0.0,93,0.00,,,0.00,WUHU216DAVISVP2,2013-02-15 10:35:00,
2013-02-15 05:40:00,19.9,18.2,29.93,North,5,0.0,0.0,93,0.00,,,0.00,WUHU216DAVISVP2,2013-02-15 10:40:00,
2013-02-15 05:45:00,19.8,17.8,29.93,North,5,0.0,0.0,92,0.00,,,0.00,WUHU216DAVISVP2,2013-02-15 10:45:00,
2013-02-15 05:50:00,19.8,17.8,29.93,North,5,0.0,0.0,92,0.00,,,0.00,WUHU216DAVISVP2,2013-02-15 10:50:00,
2013-02-15 05:55:00,19.8,17.8,29.93,North,5,0.0,0.0,92,0.00,,,0.00,WUHU216DAVISVP2,2013-02-15 10:55:00,
2013-02-15 06:00:00,19.8,17.8,29.94,North,5,0.0,0.0,92,0.00,,,0.00,WUHU216DAVISVP2,2013-02-15 11:00:00,
2013-02-15 06:05:00,19.8,18.1,29.94,North,5,0.0,0.0,93,0.00,,,0.00,WUHU216DAVISVP2,2013-02-15 11:05:00,
2013-02-15 06:10:00,19.8,18.1,29.94,North,5,0.0,0.0,93,0.00,,,0.00,WUHU216DAVISVP2,2013-02-15 11:10:00,
2013-02-15 06:15:00,19.8,17.8,29.94,North,5,0.0,0.0,92,0.00,,,0.00,WUHU216DAVISVP2,2013-02-15 11:15:00,
2013-02-15 06:20:00,19.6,17.6,29.94,North,5,0.0,0.0,92,0.00,,,0.00,WUHU216DAVISVP2,2013-02-15 11:20:00,
2013-02-15 06:25:00,19.5,17.5,29.94,North,5,0.0,0.0,92,0.00,,,0.00,WUHU216DAVISVP2,2013-02-15 11:25:00,
2013-02-15 06:30:00,19.4,17.4,29.94,North,5,0.0,0.0,92,0.00,,,0.00,WUHU216DAVISVP2,2013-02-15 11:30:00,
2013-02-15 06:35:00,19.2,17.2,29.94,North,5,0.0,0.0,92,0.00,,,0.00,WUHU216DAVISVP2,2013-02-15 11:35:00,
2013-02-15 06:40:00,18.9,16.9,29.94,North,5,0.0,0.0,92,0.00,,,0.00,WUHU216DAVISVP2,2013-02-15 11:40:00,
2013-02-15 06:45:00,18.8,16.8,29.94,North,5,0.0,0.0,92,0.00,,,0.00,WUHU216DAVISVP2,2013-02-15 11:45:00,
2013-02-15 06:50:00,18.6,16.6,29.94,North,5,0.0,0.0,92,0.00,,,0.00,WUHU216DAVISVP2,2013-02-15 11:50:00,
2013-02-15 06:55:00,18.5,16.5,29.94,North,5,0.0,0.0,92,0.00,,,0.00,WUHU216DAVISVP2,2013-02-15 11:55:00,
2013-02-15 07:00:00,18.4,16.4,29.94,North,5,0.0,0.0,92,0.00,,,0.00,WUHU216DAVISVP2,2013-02-15 12:00:00,
2013-02-15 07:05:00,18.2,16.2,29.94,North,5,0.0,0.0,92,0.00,,,0.00,WUHU216DAVISVP2,2013-02-15 12:05:00,
2013-02-15 07:10:00,18.2,16.2,29.94,North,5,0.0,0.0,92,0.00,,,0.00,WUHU216DAVISVP2,2013-02-15 12:10:00,
2013-02-15 07:15:00,18.1,16.1,29.93,North,5,0.0,0.0,92,0.00,,,0.00,WUHU216DAVISVP2,2013-02-15 12:15:00,
2013-02-15 07:20:00,18.1,16.4,29.93,North,5,0.0,0.0,93,0.00,,,0.00,WUHU216DAVISVP2,2013-02-15 12:20:00,
2013-02-15 07:25:00,18.1,16.4,29.93,North,5,0.0,0.0,93,0.00,,,0.00,WUHU216DAVISVP2,2013-02-15 12:25:00,
2013-02-15 07:30:00,18.2,16.5,29.93,North,5,0.0,0.0,93,0.00,,,0.00,WUHU216DAVISVP2,2013-02-15 12:30:00,
2013-02-15 07:35:00,18.2,16.5,29.93,North,5,0.0,0.0,93,0.00,,,0.00,WUHU216DAVISVP2,2013-02-15 12:35:00,
2013-02-15 07:40:00,18.3,16.6,29.94,North,5,0.0,0.0,93,0.00,,,0.00,WUHU216DAVISVP2,2013-02-15 12:40:00,
2013-02-15 07:45:00,18.4,16.7,29.93,North,5,0.0,0.0,93,0.00,,,0.00,WUHU216DAVISVP2,2013-02-15 12:45:00,
2013-02-15 07:50:00,18.5,16.8,29.94,North,5,0.0,0.0,93,0.00,,,0.00,WUHU216DAVISVP2,2013-02-15 12:50:00,
2013-02-15 07:55:00,18.7,17.0,29.94,North,5,0.0,0.0,93,0.00,,,0.00,WUHU216DAVISVP2,2013-02-15 12:55:00,
2013-02-15 08:00:00,19.0,17.3,29.94,North,5,0.0,0.0,93,0.00,,,0.00,WUHU216DAVISVP2,2013-02-15 13:00:00,
2013-02-15 08:05:00,19.3,17.6,29.94,North,5,0.0,0.0,93,0.00,,,0.00,WUHU216DAVISVP2,2013-02-15 13:05:00,
2013-02-15 08:10:00,19.7,18.0,29.95,North,5,0.0,0.0,93,0.00,,,0.00,WUHU216DAVISVP2,2013-02-15 13:10:00,
2013-02-15 08:15:00,20.1,18.4,29.95,North,5,0.0,0.0,93,0.00,,,0.00,WUHU216DAVISVP2,2013-02-15 13:15:00,
2013-02-15 08:20:00,20.5,18.8,29.95,North,5,0.0,0.0,93,0.00,,,0.00,WUHU216DAVISVP2,2013-02-15 13:20:00,
2013-02-15 08:25:00,21.1,19.4,29.95,North,5,0.0,0.0,93,0.00,,,0.00,WUHU216DAVISVP2,2013-02-15 13:25:00,
2013-02-15 08:31:00,21.7,19.7,29.95,North,5,0.0,0.0,92,0.00,,,0.00,WUHU216DAVISVP2,2013-02-15 13:31:00,
2013-02-15 08:36:00,22.4,20.4,29.95,North,5,0.0,0.0,92,0.00,,,0.00,WUHU216DAVISVP2,2013-02-15 13:36:00,
2013-02-15 08:41:00,23.1,21.1,29.95,North,5,0.0,0.0,92,0.00,,,0.00,WUHU216DAVISVP2,2013-02-15 13:41:00,
2013-02-15 08:46:00,23.8,21.3,29.95,North,5,0.0,0.0,90,0.00,,,0.00,WUHU216DAVISVP2,2013-02-15 13:46:00,
2013-02-15 08:51:00,24.7,22.1,29.95,North,5,0.0,0.0,90,0.00,,,0.00,WUHU216DAVISVP2,2013-02-15 13:51:00,
2013-02-15 08:56:00,25.6,23.1,29.95,North,5,0.0,0.0,90,0.00,,,0.00,WUHU216DAVISVP2,2013-02-15 13:56:00,
2013-02-15 09:01:00,26.5,23.4,29.94,North,5,0.0,1.0,88,0.00,,,0.00,WUHU216DAVISVP2,2013-02-15 14:01:00,
2013-02-15 09:06:00,27.2,23.8,29.94,North,5,0.0,1.0,87,0.00,,,0.00,WUHU216DAVISVP2,2013-02-15 14:06:00,
2013-02-15 09:11:00,28.3,24.6,29.94,North,5,1.0,2.0,86,0.00,,,0.00,WUHU216DAVISVP2,2013-02-15 14:11:00,
2013-02-15 09:16:00,29.1,24.8,29.94,North,5,1.0,2.0,84,0.00,,,0.00,WUHU216DAVISVP2,2013-02-15 14:16:00,
2013-02-15 09:21:00,29.7,25.2,29.94,North,5,0.0,2.0,83,0.00,,,0.00,WUHU216DAVISVP2,2013-02-15 14:21:00,
2013-02-15 09:26:00,30.2,25.4,29.95,North,5,0.0,2.0,82,0.00,,,0.00,WUHU216DAVISVP2,2013-02-15 14:26:00,
2013-02-15 09:31:00,30.8,25.7,29.94,North,5,1.0,2.0,81,0.00,,,0.00,WUHU216DAVISVP2,2013-02-15 14:31:00,
2013-02-15 09:36:00,31.4,25.9,29.94,North,5,0.0,2.0,80,0.00,,,0.00,WUHU216DAVISVP2,2013-02-15 14:36:00,
2013-02-15 09:41:00,32.0,26.2,29.94,North,5,1.0,1.0,79,0.00,,,0.00,WUHU216DAVISVP2,2013-02-15 14:41:00,
2013-02-15 09:46:00,32.5,26.4,29.94,North,5,1.0,1.0,78,0.00,,,0.00,WUHU216DAVISVP2,2013-02-15 14:46:00,
2013-02-15 09:51:00,33.0,26.9,29.94,North,8,1.4,2.0,78,0.00,,,0.00,WUHU216DAVISVP2,2013-02-15 14:51:00,
2013-02-15 09:56:00,33.4,27.0,29.94,North,10,1.4,3.0,77,0.00,,,0.00,WUHU216DAVISVP2,2013-02-15 14:56:00,
2013-02-15 10:01:00,33.9,27.2,29.94,North,10,2.0,3.0,76,0.00,,,0.00,WUHU216DAVISVP2,2013-02-15 15:01:00,
2013-02-15 10:06:00,34.3,27.2,29.93,NE,42,2.4,4.0,75,0.00,,,0.00,WUHU216DAVISVP2,2013-02-15 15:06:00,
2013-02-15 10:11:00,34.8,27.7,29.93,NE,51,1.1,4.0,75,0.00,,,0.00,WUHU216DAVISVP2,2013-02-15 15:11:00,
2013-02-15 10:16:00,35.3,27.9,29.93,NE,51,1.5,4.0,74,0.00,,,0.00,WUHU216DAVISVP2,2013-02-15 15:16:00,
2013-02-15 10:21:00,36.0,28.2,29.93,NE,51,1.6,4.0,73,0.00,,,0.00,WUHU216DAVISVP2,2013-02-15 15:21:00,
2013-02-15 10:26:00,36.8,28.6,29.93,NE,51,1.8,3.0,72,0.00,,,0.00,WUHU216DAVISVP2,2013-02-15 15:26:00,
2013-02-15 10:31:00,37.4,28.9,29.93,NE,51,1.0,3.0,71,0.00,,,0.00,WUHU216DAVISVP2,2013-02-15 15:31:00,
2013-02-15 10:36:00,37.9,29.0,29.93,NE,51,2.0,3.0,70,0.00,,,0.00,WUHU216DAVISVP2,2013-02-15 15:36:00,
2013-02-15 10:41:00,38.6,29.3,29.93,NE,50,0.0,2.0,69,0.00,,,0.00,WUHU216DAVISVP2,2013-02-15 15:41:00,
2013-02-15 10:46:00,39.1,29.4,29.92,NE,50,1.0,2.0,68,0.00,,,0.00,WUHU216DAVISVP2,2013-02-15 15:46:00,
2013-02-15 10:51:00,39.8,29.7,29.92,NE,50,1.0,2.0,67,0.00,,,0.00,WUHU216DAVISVP2,2013-02-15 15:51:00,
2013-02-15 10:56:00,40.5,30.0,29.92,NE,50,0.0,2.0,66,0.00,,,0.00,WUHU216DAVISVP2,2013-02-15 15:56:00,
2013-02-15 11:01:00,41.6,30.7,29.92,NE,50,1.0,2.0,65,0.00,,,0.00,WUHU216DAVISVP2,2013-02-15 16:01:00,
2013-02-15 11:06:00,42.7,31.1,29.91,North,5,1.4,3.0,63,0.00,,,0.00,WUHU216DAVISVP2,2013-02-15 16:06:00,
2013-02-15 11:11:00,43.6,31.5,29.91,SW,219,1.8,7.0,62,0.00,,,0.00,WUHU216DAVISVP2,2013-02-15 16:11:00,
2013-02-15 11:16:00,44.2,31.7,29.91,SSE,168,1.8,7.0,61,0.00,,,0.00,WUHU216DAVISVP2,2013-02-15 16:16:00,
2013-02-15 11:21:00,44.5,31.5,29.90,SSW,192,2.5,7.0,60,0.00,,,0.00,WUHU216DAVISVP2,2013-02-15 16:21:00,
2013-02-15 11:26:00,44.9,31.1,29.90,SW,221,5.0,7.0,58,0.00,,,0.00,WUHU216DAVISVP2,2013-02-15 16:26:00,
2013-02-15 11:31:00,45.3,31.4,29.90,SSW,205,3.6,7.0,58,0.00,,,0.00,WUHU216DAVISVP2,2013-02-15 16:31:00,
2013-02-15 11:36:00,46.0,31.7,29.90,SSW,192,2.3,7.0,57,0.00,,,0.00,WUHU216DAVISVP2,2013-02-15 16:36:00,
2013-02-15 11:41:00,46.5,31.6,29.90,WSW,241,3.9,8.0,56,0.00,,,0.00,WUHU216DAVISVP2,2013-02-15 16:41:00,
2013-02-15 11:46:00,47.0,31.7,29.90,SW,215,4.9,9.0,55,0.00,,,0.00,WUHU216DAVISVP2,2013-02-15 16:46:00,
2013-02-15 11:51:00,47.2,31.4,29.89,SSW,193,2.8,9.0,54,0.00,,,0.00,WUHU216DAVISVP2,2013-02-15 16:51:00,
2013-02-15 11:56:00,47.7,31.4,29.89,SW,232,2.9,9.0,53,0.00,,,0.00,WUHU216DAVISVP2,2013-02-15 16:56:00,
2013-02-15 12:01:00,48.1,31.8,29.89,SW,215,1.0,9.0,53,0.00,,,0.00,WUHU216DAVISVP2,2013-02-15 17:01:00,
2013-02-15 12:06:00,48.5,31.7,29.88,SSW,202,2.7,9.0,52,0.00,,,0.00,WUHU216DAVISVP2,2013-02-15 17:06:00,
2013-02-15 12:11:00,48.6,31.3,29.88,WSW,239,3.3,8.0,51,0.00,,,0.00,WUHU216DAVISVP2,2013-02-15 17:11:00,
2013-02-15 12:16:00,48.8,31.5,29.88,WSW,238,3.0,8.0,51,0.00,,,0.00,WUHU216DAVISVP2,2013-02-15 17:16:00,
2013-02-15 12:21:00,49.2,30.8,29.88,South,188,1.9,8.0,49,0.00,,,0.00,WUHU216DAVISVP2,2013-02-15 17:21:00,
2013-02-15 12:26:00,49.5,30.6,29.88,WSW,237,5.2,8.0,48,0.00,,,0.00,WUHU216DAVISVP2,2013-02-15 17:26:00,
2013-02-15 12:31:00,49.5,30.6,29.87,SW,215,2.0,9.0,48,0.00,,,0.00,WUHU216DAVISVP2,2013-02-15 17:31:00,
2013-02-15 12:36:00,49.9,30.4,29.88,NNW,341,1.3,9.0,47,0.00,,,0.00,WUHU216DAVISVP2,2013-02-15 17:36:00,
2013-02-15 12:41:00,50.1,30.0,29.87,SSW,200,11.0,11.0,46,0.00,,,0.00,WUHU216DAVISVP2,2013-02-15 17:41:00,
2013-02-15 12:46:00,50.0,29.5,29.87,SW,224,5.0,11.0,45,0.00,,,0.00,WUHU216DAVISVP2,2013-02-15 17:46:00,
2013-02-15 12:51:00,49.9,29.9,29.87,SW,222,9.0,11.0,46,0.00,,,0.00,WUHU216DAVISVP2,2013-02-15 17:51:00,
2013-02-15 12:56:00,49.6,29.6,29.87,SSW,210,2.1,13.0,46,0.00,,,0.00,WUHU216DAVISVP2,2013-02-15 17:56:00,
2013-02-15 13:01:00,49.9,29.8,29.87,SW,236,3.1,13.0,46,0.00,,,0.00,WUHU216DAVISVP2,2013-02-15 18:01:00,
2013-02-15 13:06:00,49.9,29.3,29.87,South,188,1.7,13.0,45,0.00,,,0.00,WUHU216DAVISVP2,2013-02-15 18:06:00,
2013-02-15 13:11:00,49.8,29.2,29.87,West,261,3.2,13.0,45,0.00,,,0.00,WUHU216DAVISVP2,2013-02-15 18:11:00,
2013-02-15 13:16:00,49.8,29.7,29.87,WNW,287,3.3,8.0,46,0.00,,,0.00,WUHU216DAVISVP2,2013-02-15 18:16:00,
2013-02-15 13:21:00,49.8,29.2,29.87,WSW,238,4.9,13.0,45,0.00,,,0.00,WUHU216DAVISVP2,2013-02-15 18:21:00,
2013-02-15 13:26:00,50.0,28.8,29.87,SW,226,3.1,13.0,44,0.00,,,0.00,WUHU216DAVISVP2,2013-02-15 18:26:00,
2013-02-15 13:31:00,50.2,29.0,29.87,WSW,247,2.6,13.0,44,0.00,,,0.00,WUHU216DAVISVP2,2013-02-15 18:31:00,
2013-02-15 13:36:00,50.1,28.9,29.87,SE,143,1.2,17.0,44,0.00,,,0.00,WUHU216DAVISVP2,2013-02-15 18:36:00,
2013-02-15 13:41:00,50.0,28.8,29.86,West,266,4.0,17.0,44,0.00,,,0.00,WUHU216DAVISVP2,2013-02-15 18:41:00,
2013-02-15 13:46:00,50.1,28.9,29.87,West,261,4.0,17.0,44,0.00,,,0.00,WUHU216DAVISVP2,2013-02-15 18:46:00,
2013-02-15 13:51:00,50.2,29.6,29.87,SW,225,6.0,17.0,45,0.00,,,0.00,WUHU216DAVISVP2,2013-02-15 18:51:00,
2013-02-15 13:56:00,50.0,28.8,29.86,NW,325,7.0,14.0,44,0.00,,,0.00,WUHU216DAVISVP2,2013-02-15 18:56:00,
2013-02-15 14:01:00,50.1,28.9,29.86,WSW,239,4.2,14.0,44,0.00,,,0.00,WUHU216DAVISVP2,2013-02-15 19:01:00,
2013-02-15 14:06:00,50.2,29.0,29.86,SW,236,8.0,14.0,44,0.00,,,0.00,WUHU216DAVISVP2,2013-02-15 19:06:00,
2013-02-15 14:11:00,50.2,29.6,29.86,WSW,237,7.0,10.0,45,0.00,,,0.00,WUHU216DAVISVP2,2013-02-15 19:11:00,
2013-02-15 14:16:00,50.3,29.1,29.86,SSW,210,1.5,10.0,44,0.00,,,0.00,WUHU216DAVISVP2,2013-02-15 19:16:00,
2013-02-15 14:21:00,50.6,29.4,29.86,WNW,282,3.5,10.0,44,0.00,,,0.00,WUHU216DAVISVP2,2013-02-15 19:21:00,
2013-02-15 14:26:00,50.5,29.3,29.86,WNW,284,3.3,10.0,44,0.00,,,0.00,WUHU216DAVISVP2,2013-02-15 19:26:00,
2013-02-15 14:31:00,50.6,28.8,29.86,SSW,201,3.1,13.0,43,0.00,,,0.00,WUHU216DAVISVP2,2013-02-15 19:31:00,
2013-02-15 14:36:00,50.6,29.4,29.86,SW,217,3.9,13.0,44,0.00,,,0.00,WUHU216DAVISVP2,2013-02-15 19:36:00,
2013-02-15 14:41:00,50.6,28.8,29.86,South,191,2.1,13.0,43,0.00,,,0.00,WUHU216DAVISVP2,2013-02-15 19:41:00,
2013-02-15 14:46:00,50.9,29.1,29.86,West,270,2.9,13.0,43,0.00,,,0.00,WUHU216DAVISVP2,2013-02-15 19:46:00,
2013-02-15 14:51:00,50.8,29.0,29.86,WNW,288,6.5,11.0,43,0.00,,,0.00,WUHU216DAVISVP2,2013-02-15 19:51:00,
2013-02-15 14:56:00,50.6,28.8,29.86,NW,312,3.4,11.0,43,0.00,,,0.00,WUHU216DAVISVP2,2013-02-15 19:56:00,
2013-02-15 15:01:00,50.3,28.5,29.86,NNW,346,4.0,11.0,43,0.00,,,0.00,WUHU216DAVISVP2,2013-02-15 20:01:00,
2013-02-15 15:06:00,50.2,28.4,29.86,WNW,289,7.0,10.0,43,0.00,,,0.00,WUHU216DAVISVP2,2013-02-15 20:06:00,
2013-02-15 15:11:00,50.4,28.6,29.86,WSW,249,2.0,10.0,43,0.00,,,0.00,WUHU216DAVISVP2,2013-02-15 20:11:00,
2013-02-15 15:16:00,50.6,28.8,29.86,SW,231,4.0,9.0,43,0.00,,,0.00,WUHU216DAVISVP2,2013-02-15 20:16:00,
2013-02-15 15:21:00,50.8,29.0,29.86,WSW,258,2.1,8.0,43,0.00,,,0.00,WUHU216DAVISVP2,2013-02-15 20:21:00,
2013-02-15 15:26:00,50.8,28.4,29.86,SW,217,5.0,8.0,42,0.00,,,0.00,WUHU216DAVISVP2,2013-02-15 20:26:00,
2013-02-15 15:31:00,50.8,29.0,29.86,WNW,301,3.0,8.0,43,0.00,,,0.00,WUHU216DAVISVP2,2013-02-15 20:31:00,
2013-02-15 15:36:00,50.8,28.5,29.85,West,262,2.8,7.0,42,0.00,,,0.00,WUHU216DAVISVP2,2013-02-15 20:36:00,
2013-02-15 15:41:00,50.5,28.8,29.86,WSW,250,2.6,7.0,43,0.00,,,0.00,WUHU216DAVISVP2,2013-02-15 20:41:00,
2013-02-15 15:46:00,50.4,29.3,29.86,West,262,1.8,7.0,44,0.00,,,0.00,WUHU216DAVISVP2,2013-02-15 20:46:00,
2013-02-15 15:51:00,50.1,29.0,29.86,West,268,2.7,7.0,44,0.00,,,0.00,WUHU216DAVISVP2,2013-02-15 20:51:00,
2013-02-15 15:56:00,50.0,28.4,29.86,West,259,3.6,9.0,43,0.00,,,0.00,WUHU216DAVISVP2,2013-02-15 20:56:00,
2013-02-15 16:01:00,49.8,28.2,29.85,WSW,242,2.5,9.0,43,0.00,,,0.00,WUHU216DAVISVP2,2013-02-15 21:01:00,
2013-02-15 16:06:00,49.5,28.5,29.86,SW,221,1.7,9.0,44,0.00,,,0.00,WUHU216DAVISVP2,2013-02-15 21:06:00,
2013-02-15 16:11:00,49.4,28.4,29.86,WSW,237,2.6,9.0,44,0.00,,,0.00,WUHU216DAVISVP2,2013-02-15 21:11:00,
2013-02-15 16:16:00,49.4,28.4,29.86,WSW,245,1.5,8.0,44,0.00,,,0.00,WUHU216DAVISVP2,2013-02-15 21:16:00,
2013-02-15 16:21:00,49.3,28.3,29.86,WSW,246,3.0,8.0,44,0.00,,,0.00,WUHU216DAVISVP2,2013-02-15 21:21:00,
2013-02-15 16:26:00,49.1,28.1,29.86,WSW,255,1.2,5.0,44,0.00,,,0.00,WUHU216DAVISVP2,2013-02-15 21:26:00,
2013-02-15 16:31:00,48.8,28.4,29.86,SW,231,2.2,4.0,45,0.00,,,0.00,WUHU216DAVISVP2,2013-02-15 21:31:00,
2013-02-15 16:36:00,48.5,28.6,29.86,WSW,258,1.0,4.0,46,0.00,,,0.00,WUHU216DAVISVP2,2013-02-15 21:36:00,
2013-02-15 16:41:00,48.2,28.9,29.86,WSW,258,0.0,4.0,47,0.00,,,0.00,WUHU216DAVISVP2,2013-02-15 21:41:00,
2013-02-15 16:46:00,47.8,28.0,29.86,WSW,258,1.0,4.0,46,0.00,,,0.00,WUHU216DAVISVP2,2013-02-15 21:46:00,
2013-02-15 16:51:00,47.5,28.3,29.86,WSW,258,0.0,1.0,47,0.00,,,0.00,WUHU216DAVISVP2,2013-02-15 21:51:00,
2013-02-15 16:56:00,47.2,28.4,29.86,SW,234,1.3,6.0,48,0.00,,,0.00,WUHU216DAVISVP2,2013-02-15 21:56:00,
2013-02-15 17:01:00,46.5,28.3,29.86,SW,234,0.0,6.0,49,0.00,,,0.00,WUHU216DAVISVP2,2013-02-15 22:01:00,
2013-02-15 17:06:00,45.7,29.5,29.86,SW,234,0.0,6.0,53,0.00,,,0.00,WUHU216DAVISVP2,2013-02-15 22:06:00,
2013-02-15 17:11:00,44.7,29.1,29.86,SW,234,0.0,6.0,54,0.00,,,0.00,WUHU216DAVISVP2,2013-02-15 22:11:00,
2013-02-15 17:16:00,43.7,29.1,29.86,SW,234,0.0,1.0,56,0.00,,,0.00,WUHU216DAVISVP2,2013-02-15 22:16:00,
2013-02-15 17:21:00,42.9,28.8,29.86,SW,234,0.0,1.0,57,0.00,,,0.00,WUHU216DAVISVP2,2013-02-15 22:21:00,
2013-02-15 17:26:00,42.0,29.2,29.87,SW,234,0.0,0.0,60,0.00,,,0.00,WUHU216DAVISVP2,2013-02-15 22:26:00,
2013-02-15 17:31:00,40.6,29.1,29.87,SW,234,1.2,2.0,63,0.00,,,0.00,WUHU216DAVISVP2,2013-02-15 22:31:00,
2013-02-15 17:36:00,40.0,28.9,29.87,SW,234,0.0,2.0,64,0.00,,,0.00,WUHU216DAVISVP2,2013-02-15 22:36:00,
2013-02-15 17:41:00,39.2,28.5,29.88,SW,234,0.0,2.0,65,0.00,,,0.00,WUHU216DAVISVP2,2013-02-15 22:41:00,
2013-02-15 17:46:00,38.6,29.0,29.88,SW,234,0.0,2.0,68,0.00,,,0.00,WUHU216DAVISVP2,2013-02-15 22:46:00,
2013-02-15 17:51:00,37.9,29.1,29.88,SW,225,2.0,2.0,70,0.00,,,0.00,WUHU216DAVISVP2,2013-02-15 22:51:00,
2013-02-15 17:56:00,37.6,29.1,29.89,SW,225,1.0,2.0,71,0.00,,,0.00,WUHU216DAVISVP2,2013-02-15 22:56:00,
2013-02-15 18:01:00,37.2,28.7,29.89,SW,225,0.0,2.0,71,0.00,,,0.00,WUHU216DAVISVP2,2013-02-15 23:01:00,
2013-02-15 18:06:00,36.9,28.1,29.89,SW,225,1.0,2.0,70,0.00,,,0.00,WUHU216DAVISVP2,2013-02-15 23:06:00,
2013-02-15 18:11:00,36.6,28.2,29.90,SW,225,0.0,1.0,71,0.00,,,0.00,WUHU216DAVISVP2,2013-02-15 23:11:00,
2013-02-15 18:16:00,36.3,28.5,29.90,SW,225,0.0,1.0,73,0.00,,,0.00,WUHU216DAVISVP2,2013-02-15 23:16:00,
2013-02-15 18:21:00,35.9,28.5,29.90,SW,225,0.0,1.0,74,0.00,,,0.00,WUHU216DAVISVP2,2013-02-15 23:21:00,
2013-02-15 18:26:00,35.5,28.4,29.90,SW,225,0.0,0.0,75,0.00,,,0.00,WUHU216DAVISVP2,2013-02-15 23:26:00,
2013-02-15 18:31:00,35.2,28.4,29.90,SW,225,0.0,2.0,76,0.00,,,0.00,WUHU216DAVISVP2,2013-02-15 23:31:00,
2013-02-15 18:36:00,34.8,28.4,29.90,SW,225,1.0,2.0,77,0.00,,,0.00,WUHU216DAVISVP2,2013-02-15 23:36:00,
2013-02-15 18:41:00,34.5,28.1,29.90,SW,225,3.0,3.0,77,0.00,,,0.00,WUHU216DAVISVP2,2013-02-15 23:41:00,
2013-02-15 18:46:00,34.3,27.9,29.90,SW,225,1.0,3.0,77,0.00,,,0.00,WUHU216DAVISVP2,2013-02-15 23:46:00,
2013-02-15 18:51:00,34.3,28.2,29.91,SW,225,0.0,3.0,78,0.00,,,0.00,WUHU216DAVISVP2,2013-02-15 23:51:00,
2013-02-15 18:56:00,34.2,28.1,29.91,SW,225,0.0,3.0,78,0.00,,,0.00,WUHU216DAVISVP2,2013-02-15 23:56:00,
2013-02-15 19:01:00,33.9,27.8,29.91,SW,225,0.0,2.0,78,0.00,,,0.00,WUHU216DAVISVP2,2013-02-16 00:01:00,
2013-02-15 19:06:00,33.9,27.8,29.91,SW,225,0.0,2.0,78,0.00,,,0.00,WUHU216DAVISVP2,2013-02-16 00:06:00,
2013-02-15 19:11:00,33.6,27.5,29.91,SW,225,0.0,0.0,78,0.00,,,0.00,WUHU216DAVISVP2,2013-02-16 00:11:00,
2013-02-15 19:16:00,33.4,27.9,29.91,SW,225,0.0,0.0,80,0.00,,,0.00,WUHU216DAVISVP2,2013-02-16 00:16:00,
2013-02-15 19:21:00,33.0,27.5,29.91,SW,225,0.0,0.0,80,0.00,,,0.00,WUHU216DAVISVP2,2013-02-16 00:21:00,
2013-02-15 19:26:00,32.8,27.3,29.91,SW,225,0.0,0.0,80,0.00,,,0.00,WUHU216DAVISVP2,2013-02-16 00:26:00,
2013-02-15 19:31:00,32.6,27.1,29.92,SW,225,0.0,0.0,80,0.00,,,0.00,WUHU216DAVISVP2,2013-02-16 00:31:00,
2013-02-15 19:36:00,32.4,27.5,29.92,SW,225,0.0,0.0,82,0.00,,,0.00,WUHU216DAVISVP2,2013-02-16 00:36:00,
2013-02-15 19:41:00,32.2,27.3,29.91,SW,225,0.0,0.0,82,0.00,,,0.00,WUHU216DAVISVP2,2013-02-16 00:41:00,
2013-02-15 19:46:00,31.9,27.0,29.91,SW,225,0.0,0.0,82,0.00,,,0.00,WUHU216DAVISVP2,2013-02-16 00:46:00,
2013-02-15 19:51:00,31.6,26.7,29.91,SW,225,0.0,1.0,82,0.00,,,0.00,WUHU216DAVISVP2,2013-02-16 00:51:00,
2013-02-15 19:56:00,31.4,26.8,29.91,SW,225,0.0,1.0,83,0.00,,,0.00,WUHU216DAVISVP2,2013-02-16 00:56:00,
2013-02-15 20:01:00,31.2,26.6,29.92,SW,225,0.0,1.0,83,0.00,,,0.00,WUHU216DAVISVP2,2013-02-16 01:01:00,
2013-02-15 20:06:00,31.0,26.4,29.92,SW,225,0.0,1.0,83,0.00,,,0.00,WUHU216DAVISVP2,2013-02-16 01:06:00,
2013-02-15 20:11:00,30.7,26.1,29.92,SW,225,0.0,0.0,83,0.00,,,0.00,WUHU216DAVISVP2,2013-02-16 01:11:00,
2013-02-15 20:16:00,30.6,26.0,29.92,SW,225,0.0,0.0,83,0.00,,,0.00,WUHU216DAVISVP2,2013-02-16 01:16:00,
2013-02-15 20:21:00,30.5,26.5,29.92,SW,225,0.0,0.0,85,0.00,,,0.00,WUHU216DAVISVP2,2013-02-16 01:21:00,
2013-02-15 20:26:00,30.3,26.3,29.92,SW,225,0.0,0.0,85,0.00,,,0.00,WUHU216DAVISVP2,2013-02-16 01:26:00,
2013-02-15 20:31:00,30.2,26.2,29.92,SW,225,0.0,0.0,85,0.00,,,0.00,WUHU216DAVISVP2,2013-02-16 01:31:00,
2013-02-15 20:36:00,30.0,26.3,29.92,SW,225,0.0,0.0,86,0.00,,,0.00,WUHU216DAVISVP2,2013-02-16 01:36:00,
2013-02-15 20:41:00,29.8,26.1,29.92,SW,225,0.0,0.0,86,0.00,,,0.00,WUHU216DAVISVP2,2013-02-16 01:41:00,
2013-02-15 21:00:00,29.0,25.6,29.93,North,0,0.0,0.0,87,0.00,,,0.00,WUHU216DAVISVP2,2013-02-16 02:00:00,
2013-02-15 21:29:00,28.1,25.2,29.93,SW,225,0.0,0.0,89,0.00,,,0.00,WUHU216DAVISVP2,2013-02-16 02:29:00,
2013-02-15 21:34:00,28.0,25.2,29.92,SW,225,0.0,0.0,89,0.00,,,0.00,WUHU216DAVISVP2,2013-02-16 02:34:00,
2013-02-15 21:39:00,27.9,25.0,29.93,SW,225,0.0,0.0,89,0.00,,,0.00,WUHU216DAVISVP2,2013-02-16 02:39:00,
2013-02-15 21:44:00,27.7,24.8,29.93,SW,225,0.0,0.0,89,0.00,,,0.00,WUHU216DAVISVP2,2013-02-16 02:44:00,
2013-02-15 21:49:00,27.6,24.7,29.93,SW,225,0.0,0.0,89,0.00,,,0.00,WUHU216DAVISVP2,2013-02-16 02:49:00,
2013-02-15 21:54:00,27.6,25.0,29.92,SW,225,0.0,0.0,90,0.00,,,0.00,WUHU216DAVISVP2,2013-02-16 02:54:00,
2013-02-15 21:59:00,27.5,24.9,29.92,SW,225,0.0,0.0,90,0.00,,,0.00,WUHU216DAVISVP2,2013-02-16 02:59:00,
2013-02-15 22:04:00,27.4,24.8,29.92,SW,225,0.0,0.0,90,0.00,,,0.00,WUHU216DAVISVP2,2013-02-16 03:04:00,
2013-02-15 22:09:00,27.2,24.6,29.92,SW,225,1.0,1.0,90,0.00,,,0.00,WUHU216DAVISVP2,2013-02-16 03:09:00,
2013-02-15 22:14:00,27.2,24.9,29.93,SW,225,0.0,1.0,91,0.00,,,0.00,WUHU216DAVISVP2,2013-02-16 03:14:00,
2013-02-15 22:19:00,27.2,24.9,29.93,SW,225,0.0,1.0,91,0.00,,,0.00,WUHU216DAVISVP2,2013-02-16 03:19:00,
2013-02-15 22:24:00,27.1,24.8,29.92,SW,225,0.0,1.0,91,0.00,,,0.00,WUHU216DAVISVP2,2013-02-16 03:24:00,
2013-02-15 22:29:00,27.1,24.8,29.92,SW,225,0.0,1.0,91,0.00,,,0.00,WUHU216DAVISVP2,2013-02-16 03:29:00,
2013-02-15 22:34:00,27.3,25.0,29.92,SW,225,1.0,1.0,91,0.00,,,0.00,WUHU216DAVISVP2,2013-02-16 03:34:00,
2013-02-15 22:39:00,27.5,25.2,29.93,SW,225,0.0,1.0,91,0.00,,,0.00,WUHU216DAVISVP2,2013-02-16 03:39:00,
2013-02-15 22:44:00,27.7,25.4,29.93,SW,225,0.0,1.0,91,0.00,,,0.00,WUHU216DAVISVP2,2013-02-16 03:44:00,
2013-02-15 22:49:00,27.7,25.1,29.92,SW,225,0.0,1.0,90,0.00,,,0.00,WUHU216DAVISVP2,2013-02-16 03:49:00,
2013-02-15 22:54:00,27.8,25.5,29.93,SW,225,0.0,1.0,91,0.00,,,0.00,WUHU216DAVISVP2,2013-02-16 03:54:00,
2013-02-15 22:59:00,27.8,25.2,29.92,SW,225,0.0,0.0,90,0.00,,,0.00,WUHU216DAVISVP2,2013-02-16 03:59:00,
2013-02-15 23:04:00,27.9,25.3,29.92,SW,225,0.0,0.0,90,0.00,,,0.00,WUHU216DAVISVP2,2013-02-16 04:04:00,
2013-02-15 23:09:00,27.9,25.3,29.92,SW,225,0.0,0.0,90,0.00,,,0.00,WUHU216DAVISVP2,2013-02-16 04:09:00,
2013-02-15 23:14:00,28.0,25.4,29.92,SW,225,0.0,0.0,90,0.00,,,0.00,WUHU216DAVISVP2,2013-02-16 04:14:00,
2013-02-15 23:19:00,28.1,25.5,29.92,SW,225,0.0,0.0,90,0.00,,,0.00,WUHU216DAVISVP2,2013-02-16 04:19:00,
2013-02-15 23:24:00,28.1,25.5,29.92,SW,225,0.0,0.0,90,0.00,,,0.00,WUHU216DAVISVP2,2013-02-16 04:24:00,
2013-02-15 23:29:00,28.2,25.6,29.93,SW,225,0.0,0.0,90,0.00,,,0.00,WUHU216DAVISVP2,2013-02-16 04:29:00,
2013-02-15 23:34:00,28.2,25.6,29.93,SW,225,0.0,0.0,90,0.00,,,0.00,WUHU216DAVISVP2,2013-02-16 04:34:00,
2013-02-15 23:39:00,28.2,25.6,29.92,SW,225,0.0,0.0,90,0.00,,,0.00,WUHU216DAVISVP2,2013-02-16 04:39:00,
2013-02-15 23:44:00,28.2,25.6,29.92,SW,225,0.0,0.0,90,0.00,,,0.00,WUHU216DAVISVP2,2013-02-16 04:44:00,
2013-02-15 23:49:00,28.3,25.7,29.92,SW,225,0.0,0.0,90,0.00,,,0.00,WUHU216DAVISVP2,2013-02-16 04:49:00,
2013-02-15 23:54:00,28.4,25.8,29.92,SW,225,0.0,0.0,90,0.00,,,0.00,WUHU216DAVISVP2,2013-02-16 04:54:00,
2013-02-15 23:59:00,28.4,25.8,29.92,SW,225,0.0,0.0,90,0.00,,,0.00,WUHU216DAVISVP2,2013-02-16 04:59:00,